createdAt,value
2023-02-01T00:01:36.599Z,5.90
2023-02-01T00:05:45.161Z,5.90
2023-02-01T00:09:53.725Z,5.90
2023-02-01T00:14:02.295Z,5.80
2023-02-01T00:18:10.864Z,5.70
2023-02-01T00:22:19.650Z,5.70
2023-02-01T00:26:39.343Z,5.70
2023-02-01T00:30:47.997Z,5.70
2023-02-01T00:34:56.611Z,5.70
2023-02-01T00:39:05.170Z,5.70
2023-02-01T00:43:13.719Z,5.60
2023-02-01T00:47:22.277Z,5.70
2023-02-01T00:51:31.745Z,5.70
2023-02-01T00:55:40.296Z,5.80
2023-02-01T00:59:48.879Z,5.90
2023-02-01T01:03:59.182Z,5.90
2023-02-01T01:08:07.754Z,5.90
2023-02-01T01:12:16.329Z,5.90
2023-02-01T01:16:26.082Z,5.90
2023-02-01T01:20:36.683Z,6.00
2023-02-01T01:24:45.516Z,6.00
2023-02-01T01:28:56.128Z,6.00
2023-02-01T01:33:05.241Z,6.00
2023-02-01T01:37:13.784Z,6.00
2023-02-01T01:41:27.833Z,6.00
2023-02-01T01:45:36.630Z,5.90
2023-02-01T01:49:46.336Z,6.00
2023-02-01T01:54:06.665Z,6.00
2023-02-01T01:58:18.304Z,6.00
2023-02-01T02:02:26.949Z,6.00
2023-02-01T02:06:53.480Z,5.90
2023-02-01T02:11:04.193Z,5.80
2023-02-01T02:15:15.180Z,5.90
2023-02-01T02:19:32.749Z,5.70
2023-02-01T02:23:56.376Z,5.90
2023-02-01T02:28:17.105Z,5.80
2023-02-01T02:32:55.399Z,5.80
2023-02-01T02:37:29.148Z,5.70
2023-02-01T02:42:16.351Z,5.60
2023-02-01T02:46:47.078Z,5.50
2023-02-01T02:51:22.548Z,5.50
2023-02-01T03:00:12.845Z,5.40
2023-02-01T03:04:22.075Z,5.50
2023-02-01T03:08:32.263Z,5.50
2023-02-01T03:13:02.013Z,5.40
2023-02-01T03:17:15.028Z,5.50
2023-02-01T03:21:30.314Z,5.60
2023-02-01T03:25:39.230Z,5.60
2023-02-01T03:29:53.553Z,5.60
2023-02-01T03:34:02.270Z,5.70
2023-02-01T03:38:26.060Z,5.70
2023-02-01T03:42:52.495Z,5.80
2023-02-01T03:47:25.147Z,5.80
2023-02-01T03:51:34.611Z,5.60
2023-02-01T03:55:43.928Z,5.90
2023-02-01T03:59:52.752Z,5.80
2023-02-01T04:04:01.454Z,5.80
2023-02-01T04:08:10.011Z,5.80
2023-02-01T04:12:21.627Z,5.70
2023-02-01T04:16:30.206Z,5.80
2023-02-01T04:20:38.762Z,5.90
2023-02-01T04:24:47.299Z,5.90
2023-02-01T04:28:55.927Z,5.80
2023-02-01T04:33:07.056Z,5.80
2023-02-01T04:37:15.605Z,5.90
2023-02-01T04:41:24.231Z,5.90
2023-02-01T04:45:33.107Z,5.90
2023-02-01T04:49:41.649Z,5.80
2023-02-01T04:53:50.208Z,5.80
2023-02-01T04:57:58.788Z,5.80
2023-02-01T05:02:07.399Z,5.70
2023-02-01T05:06:16.029Z,5.80
2023-02-01T05:10:24.899Z,5.70
2023-02-01T05:14:33.546Z,5.60
2023-02-01T05:18:42.106Z,5.60
2023-02-01T05:22:50.655Z,5.60
2023-02-01T05:26:59.302Z,5.60
2023-02-01T05:31:12.531Z,5.50
2023-02-01T05:35:21.872Z,5.50
2023-02-01T05:39:30.446Z,5.50
2023-02-01T05:43:39.000Z,5.50
2023-02-01T05:47:47.576Z,5.60
2023-02-01T05:51:56.129Z,5.50
2023-02-01T05:56:05.320Z,5.50
2023-02-01T06:00:15.681Z,5.40
2023-02-01T06:04:24.350Z,5.50
2023-02-01T06:08:32.898Z,5.50
2023-02-01T06:12:41.450Z,5.50
2023-02-01T06:16:50.023Z,5.70
2023-02-01T06:21:01.852Z,5.70
2023-02-01T06:25:11.779Z,5.80
2023-02-01T06:29:20.341Z,5.80
2023-02-01T06:33:28.902Z,5.80
2023-02-01T06:37:38.895Z,5.80
2023-02-01T06:41:51.158Z,5.90
2023-02-01T06:46:04.500Z,5.90
2023-02-01T06:50:13.029Z,5.80
2023-02-01T06:54:21.649Z,5.90
2023-02-01T06:58:31.744Z,5.90
2023-02-01T07:02:40.404Z,5.90
2023-02-01T07:06:49.074Z,6.00
2023-02-01T07:10:57.821Z,6.10
2023-02-01T07:15:07.489Z,5.90
2023-02-01T07:19:16.105Z,6.00
2023-02-01T07:23:25.317Z,5.90
2023-02-01T07:27:36.405Z,6.00
2023-02-01T07:31:45.196Z,6.00
2023-02-01T07:36:02.137Z,6.00
2023-02-01T07:40:14.373Z,6.00
2023-02-01T07:44:24.131Z,6.10
2023-02-01T07:48:34.814Z,5.90
2023-02-01T07:52:43.354Z,6.00
2023-02-01T07:56:52.052Z,6.00
2023-02-01T08:01:18.360Z,6.10
2023-02-01T08:05:27.017Z,6.10
2023-02-01T08:09:35.877Z,6.10
2023-02-01T08:13:44.835Z,6.00
2023-02-01T08:17:53.926Z,6.00
2023-02-01T08:22:04.137Z,6.00
2023-02-01T08:26:21.624Z,6.10
2023-02-01T08:30:30.232Z,6.00
2023-02-01T08:34:38.789Z,6.10
2023-02-01T08:38:47.432Z,6.10
2023-02-01T08:42:56.306Z,6.00
2023-02-01T08:47:05.392Z,6.20
2023-02-01T08:51:16.109Z,6.10
2023-02-01T08:55:24.738Z,6.20
2023-02-01T08:59:33.316Z,6.20
2023-02-01T09:03:42.267Z,6.30
2023-02-01T09:07:50.874Z,6.30
2023-02-01T09:11:59.433Z,6.30
2023-02-01T09:16:08.415Z,6.30
2023-02-01T09:20:17.226Z,6.20
2023-02-01T09:24:25.885Z,6.30
2023-02-01T09:28:34.601Z,6.30
2023-02-01T09:32:43.177Z,6.40
2023-02-01T09:36:51.732Z,6.30
2023-02-01T09:41:00.458Z,6.50
2023-02-01T09:45:14.579Z,6.60
2023-02-01T09:49:26.208Z,6.80
2023-02-01T09:53:48.017Z,6.80
2023-02-01T09:58:05.987Z,6.90
2023-02-01T10:02:23.613Z,6.90
2023-02-01T10:06:41.003Z,6.80
2023-02-01T10:10:51.544Z,6.90
2023-02-01T10:15:19.454Z,7.10
2023-02-01T10:19:39.812Z,7.20
2023-02-01T10:24:17.765Z,7.10
2023-02-01T10:28:22.880Z,7.10
2023-02-01T10:32:35.564Z,7.10
2023-02-01T10:36:53.076Z,7.10
2023-02-01T10:41:04.534Z,7.30
2023-02-01T10:45:16.192Z,7.30
2023-02-01T10:49:42.777Z,7.30
2023-02-01T10:54:12.121Z,7.20
2023-02-01T10:58:36.864Z,7.30
2023-02-01T11:02:46.006Z,7.50
2023-02-01T11:07:09.546Z,7.50
2023-02-01T11:11:19.487Z,7.60
2023-02-01T11:15:29.300Z,7.60
2023-02-01T11:19:39.169Z,7.60
2023-02-01T11:23:47.941Z,7.60
2023-02-01T11:27:57.832Z,7.40
2023-02-01T11:32:07.076Z,7.30
2023-02-01T11:36:21.197Z,7.30
2023-02-01T11:40:40.106Z,7.40
2023-02-01T11:44:49.623Z,7.30
2023-02-01T11:49:00.169Z,7.30
2023-02-01T11:53:46.388Z,7.40
2023-02-01T11:58:09.665Z,7.20
2023-02-01T12:02:46.451Z,7.20
2023-02-01T12:06:59.691Z,7.30
2023-02-01T12:11:23.425Z,7.30
2023-02-01T12:15:57.367Z,7.40
2023-02-01T12:20:14.615Z,7.50
2023-02-01T12:24:34.888Z,7.60
2023-02-01T12:29:14.624Z,7.60
2023-02-01T12:33:26.262Z,7.80
2023-02-01T12:37:39.421Z,7.80
2023-02-01T12:41:51.075Z,7.70
2023-02-01T12:46:02.758Z,7.80
2023-02-01T12:50:22.692Z,7.80
2023-02-01T12:54:46.141Z,7.90
2023-02-01T12:58:59.429Z,8.00
2023-02-01T13:03:23.838Z,7.90
2023-02-01T13:07:41.146Z,7.80
2023-02-01T13:11:51.346Z,7.90
2023-02-01T13:16:19.503Z,7.90
2023-02-01T13:20:37.509Z,7.90
2023-02-01T13:24:49.131Z,7.90
2023-02-01T13:29:03.640Z,7.90
2023-02-01T13:33:53.021Z,7.90
2023-02-01T13:38:05.519Z,8.00
2023-02-01T13:42:17.168Z,8.00
2023-02-01T13:46:26.018Z,8.10
2023-02-01T13:50:38.933Z,8.10
2023-02-01T13:54:47.655Z,8.10
2023-02-01T13:58:56.289Z,8.30
2023-02-01T14:03:17.113Z,8.30
2023-02-01T14:07:25.733Z,8.20
2023-02-01T14:11:48.758Z,8.30
2023-02-01T14:16:10.207Z,8.40
2023-02-01T14:20:38.156Z,8.40
2023-02-01T14:24:55.342Z,8.40
2023-02-01T14:29:22.241Z,8.40
2023-02-01T14:33:30.430Z,8.40
2023-02-01T14:37:40.910Z,8.50
2023-02-01T14:41:51.468Z,8.40
2023-02-01T14:46:00.155Z,8.40
2023-02-01T14:50:20.770Z,8.40
2023-02-01T14:54:29.562Z,8.50
2023-02-01T14:58:50.106Z,8.50
2023-02-01T15:03:16.687Z,8.50
2023-02-01T15:07:27.956Z,8.60
2023-02-01T15:11:55.685Z,8.50
2023-02-01T15:16:07.235Z,8.50
2023-02-01T15:20:18.963Z,8.50
2023-02-01T15:24:30.495Z,8.50
2023-02-01T15:28:39.088Z,8.50
2023-02-01T15:32:47.741Z,8.40
2023-02-01T15:37:03.615Z,8.50
2023-02-01T15:41:14.156Z,8.50
2023-02-01T15:45:25.892Z,8.30
2023-02-01T15:49:40.142Z,8.30
2023-02-01T15:53:51.774Z,8.30
2023-02-01T15:58:00.679Z,8.40
2023-02-01T16:02:28.530Z,8.40
2023-02-01T16:06:38.850Z,8.30
2023-02-01T16:10:50.011Z,8.40
2023-02-01T16:14:58.704Z,8.30
2023-02-01T16:19:09.634Z,8.20
2023-02-01T16:23:18.251Z,8.20
2023-02-01T16:27:26.827Z,8.10
2023-02-01T16:31:38.909Z,8.00
2023-02-01T16:35:48.204Z,8.10
2023-02-01T16:39:56.912Z,8.20
2023-02-01T16:44:05.973Z,8.20
2023-02-01T16:48:23.226Z,8.30
2023-02-01T16:52:31.849Z,8.20
2023-02-01T16:56:43.127Z,8.30
2023-02-01T17:00:53.203Z,8.40
2023-02-01T17:05:01.745Z,8.30
2023-02-01T17:09:11.853Z,8.20
2023-02-01T17:13:20.413Z,8.10
2023-02-01T17:17:38.463Z,8.30
2023-02-01T17:21:45.332Z,8.10
2023-02-01T17:25:54.191Z,8.40
2023-02-01T17:30:04.107Z,8.20
2023-02-01T17:34:15.522Z,8.30
2023-02-01T17:38:25.243Z,8.30
2023-02-01T17:42:33.802Z,8.30
2023-02-01T17:46:42.362Z,8.30
2023-02-01T17:50:56.860Z,8.20
2023-02-01T17:55:08.501Z,8.20
2023-02-01T17:59:17.679Z,8.20
2023-02-01T18:03:32.897Z,8.20
2023-02-01T18:07:41.459Z,8.00
2023-02-01T18:11:50.402Z,8.10
2023-02-01T18:15:59.935Z,8.10
2023-02-01T18:20:10.617Z,8.10
2023-02-01T18:24:19.341Z,8.10
2023-02-01T18:28:27.941Z,8.00
2023-02-01T18:32:36.755Z,8.10
2023-02-01T18:36:46.345Z,8.00
2023-02-01T18:40:58.568Z,8.20
2023-02-01T18:45:11.801Z,8.20
2023-02-01T18:49:20.367Z,8.10
2023-02-01T18:53:29.169Z,8.20
2023-02-01T18:57:37.851Z,8.20
2023-02-01T19:01:49.230Z,8.30
2023-02-01T19:05:58.700Z,8.20
2023-02-01T19:10:09.030Z,8.10
2023-02-01T19:14:17.589Z,8.10
2023-02-01T19:18:29.078Z,8.10
2023-02-01T19:22:38.174Z,8.30
2023-02-01T19:26:48.393Z,8.10
2023-02-01T19:31:04.784Z,8.20
2023-02-01T19:35:16.976Z,8.30
2023-02-01T19:39:25.544Z,8.20
2023-02-01T19:43:35.250Z,8.10
2023-02-01T19:47:44.394Z,8.10
2023-02-01T19:51:53.095Z,8.10
2023-02-01T19:56:01.912Z,8.20
2023-02-01T20:00:14.312Z,8.20
2023-02-01T20:04:23.172Z,8.30
2023-02-01T20:08:31.748Z,8.30
2023-02-01T20:12:40.460Z,7.60
2023-02-01T20:16:49.085Z,7.00
2023-02-01T20:20:58.992Z,6.70
2023-02-01T20:25:09.688Z,6.50
2023-02-01T20:29:19.403Z,6.40
2023-02-01T20:33:28.861Z,6.70
2023-02-01T20:37:37.676Z,7.20
2023-02-01T20:41:46.230Z,7.60
2023-02-01T20:45:54.783Z,8.00
2023-02-01T20:50:03.641Z,8.20
2023-02-01T20:54:12.193Z,8.30
2023-02-01T20:58:21.076Z,8.40
2023-02-01T21:02:29.720Z,8.30
2023-02-01T21:06:38.276Z,8.30
2023-02-01T21:10:58.290Z,8.40
2023-02-01T21:15:07.540Z,8.50
2023-02-01T21:19:17.550Z,8.50
2023-02-01T21:23:26.161Z,8.50
2023-02-01T21:27:34.739Z,8.60
2023-02-01T21:31:44.208Z,8.50
2023-02-01T21:35:52.800Z,8.60
2023-02-01T21:40:01.712Z,8.60
2023-02-01T21:44:12.650Z,8.60
2023-02-01T21:48:21.205Z,8.60
2023-02-01T21:52:29.758Z,8.60
2023-02-01T21:56:39.378Z,8.60
2023-02-01T22:00:48.042Z,8.50
2023-02-01T22:04:57.661Z,8.60
2023-02-01T22:09:12.004Z,8.50
2023-02-01T22:13:20.586Z,8.40
2023-02-01T22:17:29.159Z,8.40
2023-02-01T22:21:39.168Z,8.30
2023-02-01T22:25:50.812Z,8.30
2023-02-01T22:29:59.402Z,8.20
2023-02-01T22:34:09.888Z,8.20
2023-02-01T22:38:18.838Z,8.20
2023-02-01T22:42:27.390Z,8.30
2023-02-01T22:46:36.235Z,8.40
2023-02-01T22:50:45.080Z,8.40
2023-02-01T22:54:56.550Z,8.40
2023-02-01T22:59:07.858Z,8.40
2023-02-01T23:03:16.505Z,8.40
2023-02-01T23:07:25.093Z,8.50
2023-02-01T23:11:37.382Z,8.50
2023-02-01T23:15:45.994Z,8.50
2023-02-01T23:19:54.609Z,8.50
2023-02-01T23:24:06.176Z,8.50
2023-02-01T23:28:15.922Z,8.40
2023-02-01T23:32:26.932Z,8.50
2023-02-01T23:36:35.625Z,8.40
2023-02-01T23:40:44.300Z,8.40
2023-02-01T23:44:52.847Z,8.40
2023-02-01T23:49:03.033Z,8.40
2023-02-01T23:53:11.595Z,8.30
2023-02-01T23:57:21.869Z,8.30
